createdAt,value
2023-03-12T00:01:25.452Z,-8.80
2023-03-12T00:03:55.038Z,-8.74
2023-03-12T00:06:24.106Z,-8.72
2023-03-12T00:08:55.164Z,-8.62
2023-03-12T00:11:25.200Z,-8.60
2023-03-12T00:13:56.360Z,-8.50
2023-03-12T00:16:25.954Z,-8.43
2023-03-12T00:18:56.295Z,-8.31
2023-03-12T00:21:25.407Z,-8.29
2023-03-12T00:23:54.500Z,-8.21
2023-03-12T00:26:23.660Z,-8.15
2023-03-12T00:28:52.939Z,-8.05
2023-03-12T00:31:28.688Z,-7.93
2023-03-12T00:33:57.965Z,-7.84
2023-03-12T00:36:29.612Z,-7.73
2023-03-12T00:39:00.408Z,-7.62
2023-03-12T00:41:30.955Z,-7.51
2023-03-12T00:44:00.442Z,-7.49
2023-03-12T00:46:30.156Z,-7.43
2023-03-12T00:48:59.006Z,-7.39
2023-03-12T00:51:27.930Z,-7.33
2023-03-12T00:53:57.001Z,-7.34
2023-03-12T00:56:26.471Z,-7.32
2023-03-12T00:58:55.351Z,-7.30
2023-03-12T01:01:25.238Z,-7.27
2023-03-12T01:03:55.108Z,-7.27
2023-03-12T01:06:23.919Z,-7.21
2023-03-12T01:08:53.052Z,-7.23
2023-03-12T01:11:23.283Z,-7.26
2023-03-12T01:13:52.050Z,-7.24
2023-03-12T01:16:21.012Z,-7.19
2023-03-12T01:18:49.759Z,-7.07
2023-03-12T01:21:18.503Z,-7.01
2023-03-12T01:23:47.291Z,-6.97
2023-03-12T01:26:16.073Z,-6.86
2023-03-12T01:28:45.365Z,-6.83
2023-03-12T01:31:17.663Z,-6.87
2023-03-12T01:33:50.754Z,-6.74
2023-03-12T01:36:19.505Z,-6.64
2023-03-12T01:38:49.128Z,-6.50
2023-03-12T01:41:18.230Z,-6.40
2023-03-12T01:43:47.794Z,-6.30
2023-03-12T01:46:27.370Z,-5.99
2023-03-12T01:49:09.588Z,-5.98
2023-03-12T01:51:56.033Z,-5.96
2023-03-12T01:54:45.720Z,-5.82
2023-03-12T01:57:26.610Z,-5.67
2023-03-12T02:00:00.380Z,-5.45
2023-03-12T02:02:30.748Z,-5.29
2023-03-12T02:05:34.368Z,-5.09
2023-03-12T02:08:03.253Z,-4.85
2023-03-12T02:10:32.187Z,-4.64
2023-03-12T02:13:01.050Z,-4.38
2023-03-12T02:15:30.451Z,-4.19
2023-03-12T02:18:04.583Z,-4.02
2023-03-12T02:21:11.918Z,-3.80
2023-03-12T02:24:02.505Z,-3.72
2023-03-12T02:26:36.527Z,-3.74
2023-03-12T02:29:07.165Z,-3.64
2023-03-12T02:31:49.567Z,-3.45
2023-03-12T02:34:18.388Z,-3.31
2023-03-12T02:36:49.813Z,-3.35
2023-03-12T02:39:19.535Z,-3.40
2023-03-12T02:41:58.364Z,-3.43
2023-03-12T02:44:38.535Z,-3.54
2023-03-12T02:47:07.831Z,-3.61
2023-03-12T02:49:36.768Z,-3.66
2023-03-12T02:52:05.845Z,-3.81
2023-03-12T02:54:36.880Z,-3.91
2023-03-12T02:57:05.800Z,-4.01
2023-03-12T02:59:36.237Z,-3.80
2023-03-12T03:02:07.772Z,-3.65
2023-03-12T03:04:37.097Z,-3.40
2023-03-12T03:07:06.303Z,-3.10
2023-03-12T03:09:35.288Z,-2.89
2023-03-12T03:12:04.791Z,-2.89
2023-03-12T03:14:35.636Z,-2.93
2023-03-12T03:17:05.442Z,-3.06
2023-03-12T03:19:34.487Z,-2.86
2023-03-12T03:22:03.449Z,-2.74
2023-03-12T03:24:32.457Z,-2.58
2023-03-12T03:27:01.226Z,-2.55
2023-03-12T03:29:30.069Z,-2.53
2023-03-12T03:31:58.928Z,-2.64
2023-03-12T03:34:28.759Z,-2.70
2023-03-12T03:36:57.749Z,-2.65
2023-03-12T03:39:26.775Z,-2.63
2023-03-12T03:41:55.733Z,-2.72
2023-03-12T03:44:27.409Z,-2.86
2023-03-12T03:46:57.208Z,-3.06
2023-03-12T03:49:26.991Z,-3.01
2023-03-12T03:51:56.332Z,-2.87
2023-03-12T03:54:32.058Z,-2.94
2023-03-12T03:57:02.073Z,-2.92
2023-03-12T03:59:33.703Z,-2.99
2023-03-12T04:02:03.137Z,-3.01
2023-03-12T04:04:35.817Z,-3.14
2023-03-12T04:07:05.299Z,-3.30
2023-03-12T04:09:34.306Z,-3.40
2023-03-12T04:12:03.606Z,-3.40
2023-03-12T04:14:32.831Z,-3.34
2023-03-12T04:17:01.935Z,-3.20
2023-03-12T04:19:30.834Z,-3.25
2023-03-12T04:21:59.668Z,-3.32
2023-03-12T04:24:28.669Z,-3.31
2023-03-12T04:26:59.705Z,-3.24
2023-03-12T04:29:29.045Z,-3.40
2023-03-12T04:31:58.864Z,-3.37
2023-03-12T04:34:27.957Z,-3.48
2023-03-12T04:36:58.082Z,-3.57
2023-03-12T04:39:27.086Z,-3.45
2023-03-12T04:41:56.276Z,-3.28
2023-03-12T04:44:25.102Z,-3.11
2023-03-12T04:46:54.038Z,-3.06
2023-03-12T04:49:26.475Z,-2.88
2023-03-12T04:51:57.619Z,-2.60
2023-03-12T04:54:26.478Z,-2.17
2023-03-12T04:56:55.625Z,-1.93
2023-03-12T04:59:24.955Z,-1.49
2023-03-12T05:01:54.842Z,-1.02
2023-03-12T05:04:28.631Z,-0.54
2023-03-12T05:06:57.864Z,-0.18
2023-03-12T05:09:26.832Z,0.14
2023-03-12T05:11:55.931Z,0.60
2023-03-12T05:14:25.018Z,0.86
2023-03-12T05:16:54.492Z,0.86
2023-03-12T05:19:23.415Z,0.79
2023-03-12T05:21:52.070Z,0.86
2023-03-12T05:24:22.612Z,0.69
2023-03-12T05:26:51.867Z,0.54
2023-03-12T05:29:24.418Z,0.44
2023-03-12T05:31:54.593Z,0.15
2023-03-12T05:34:23.662Z,-0.29
2023-03-12T05:36:54.270Z,-0.25
2023-03-12T05:39:26.782Z,-0.10
2023-03-12T05:41:58.210Z,-0.03
2023-03-12T05:44:28.720Z,0.08
2023-03-12T05:46:59.017Z,0.69
2023-03-12T05:49:29.033Z,1.15
2023-03-12T05:51:59.172Z,1.64
2023-03-12T05:54:28.480Z,1.72
2023-03-12T05:56:58.236Z,1.54
2023-03-12T05:59:28.412Z,1.58
2023-03-12T06:01:58.951Z,1.27
2023-03-12T06:04:28.144Z,0.78
2023-03-12T06:06:57.215Z,0.21
2023-03-12T06:09:26.232Z,-0.01
2023-03-12T06:11:55.784Z,-0.24
2023-03-12T06:14:24.702Z,-0.49
2023-03-12T06:16:55.251Z,-0.62
2023-03-12T06:19:27.325Z,-0.93
2023-03-12T06:21:56.228Z,-1.18
2023-03-12T06:24:25.342Z,-1.21
2023-03-12T06:27:02.213Z,-1.36
2023-03-12T06:29:30.881Z,-1.37
2023-03-12T06:31:59.811Z,-1.42
2023-03-12T06:34:28.610Z,-1.42
2023-03-12T06:36:57.451Z,-1.42
2023-03-12T06:39:26.356Z,-1.43
2023-03-12T06:41:55.339Z,-1.49
2023-03-12T06:44:24.341Z,-1.47
2023-03-12T06:46:53.205Z,-1.47
2023-03-12T06:49:22.111Z,-1.39
2023-03-12T06:51:51.276Z,-1.43
2023-03-12T06:54:20.205Z,-1.50
2023-03-12T06:56:49.059Z,-1.76
2023-03-12T06:59:19.033Z,-1.91
2023-03-12T07:01:48.704Z,-1.93
2023-03-12T07:04:18.346Z,-1.91
2023-03-12T07:06:51.258Z,-1.93
2023-03-12T07:09:20.655Z,-2.03
2023-03-12T07:11:49.482Z,-2.17
2023-03-12T07:14:18.366Z,-2.21
2023-03-12T07:16:47.397Z,-2.29
2023-03-12T07:19:16.495Z,-2.36
2023-03-12T07:21:45.288Z,-2.54
2023-03-12T07:24:14.708Z,-2.56
2023-03-12T07:26:44.223Z,-2.56
2023-03-12T07:29:13.076Z,-2.44
2023-03-12T07:31:42.012Z,-2.46
2023-03-12T07:34:11.010Z,-2.48
2023-03-12T07:36:40.107Z,-2.46
2023-03-12T07:39:09.600Z,-2.38
2023-03-12T07:41:39.644Z,-2.35
2023-03-12T07:44:08.760Z,-2.38
2023-03-12T07:46:37.819Z,-2.32
2023-03-12T07:49:06.650Z,-2.26
2023-03-12T07:51:35.512Z,-2.19
2023-03-12T07:54:04.428Z,-2.07
2023-03-12T07:56:35.053Z,-2.08
2023-03-12T07:59:05.143Z,-2.11
2023-03-12T08:01:35.023Z,-2.18
2023-03-12T08:04:04.236Z,-2.17
2023-03-12T08:06:33.084Z,-2.18
2023-03-12T08:09:01.915Z,-2.21
2023-03-12T08:11:31.545Z,-2.06
2023-03-12T08:14:00.342Z,-1.82
2023-03-12T08:16:29.152Z,-1.46
2023-03-12T08:18:58.391Z,-1.03
2023-03-12T08:21:27.307Z,-0.69
2023-03-12T08:23:56.125Z,-0.47
2023-03-12T08:26:25.026Z,-0.37
2023-03-12T08:28:53.866Z,-0.40
2023-03-12T08:31:22.739Z,-0.43
2023-03-12T08:33:51.553Z,-0.40
2023-03-12T08:36:22.398Z,-0.43
2023-03-12T08:38:51.499Z,-0.68
2023-03-12T08:41:20.519Z,-0.87
2023-03-12T08:43:49.438Z,-0.84
2023-03-12T08:46:18.442Z,-0.86
2023-03-12T08:48:47.429Z,-0.98
2023-03-12T08:51:17.050Z,-1.08
2023-03-12T08:53:47.746Z,-1.14
2023-03-12T08:56:16.754Z,-1.20
2023-03-12T08:58:45.604Z,-1.27
2023-03-12T09:01:15.878Z,-1.26
2023-03-12T09:03:44.882Z,-1.20
2023-03-12T09:06:17.416Z,-1.17
2023-03-12T09:08:47.796Z,-1.15
2023-03-12T09:11:16.658Z,-1.06
2023-03-12T09:16:34.701Z,-1.06
2023-03-12T09:19:06.732Z,-1.17
2023-03-12T09:21:35.505Z,-1.14
2023-03-12T09:24:04.802Z,-1.20
2023-03-12T09:26:33.795Z,-1.16
2023-03-12T09:29:02.938Z,-1.14
2023-03-12T09:31:31.801Z,-1.12
2023-03-12T09:34:00.667Z,-1.10
2023-03-12T09:36:29.705Z,-1.12
2023-03-12T09:38:58.922Z,-1.21
2023-03-12T09:41:31.451Z,-1.30
2023-03-12T09:44:05.930Z,-1.28
2023-03-12T09:46:56.834Z,-1.29
2023-03-12T09:49:33.486Z,-1.34
2023-03-12T09:52:08.911Z,-1.50
2023-03-12T09:54:53.293Z,-1.74
2023-03-12T09:57:25.596Z,-1.87
2023-03-12T09:59:54.481Z,-1.97
2023-03-12T10:02:42.104Z,-2.00
2023-03-12T10:05:31.313Z,-2.09
2023-03-12T10:08:24.964Z,-2.13
2023-03-12T10:11:18.045Z,-2.22
2023-03-12T10:14:04.900Z,-2.34
2023-03-12T10:16:48.740Z,-2.44
2023-03-12T10:19:45.311Z,-2.59
2023-03-12T10:22:22.401Z,-2.73
2023-03-12T10:25:16.154Z,-2.87
2023-03-12T10:27:45.046Z,-2.96
2023-03-12T10:30:26.412Z,-3.09
2023-03-12T10:33:00.313Z,-3.21
2023-03-12T10:35:33.697Z,-3.31
2023-03-12T10:38:05.889Z,-3.33
2023-03-12T10:40:37.580Z,-3.44
2023-03-12T10:43:10.575Z,-3.49
2023-03-12T10:46:05.520Z,-3.55
2023-03-12T10:48:34.664Z,-3.58
2023-03-12T10:51:07.298Z,-3.55
2023-03-12T10:53:40.837Z,-3.67
2023-03-12T10:56:13.165Z,-3.74
2023-03-12T10:58:48.205Z,-3.75
2023-03-12T11:01:22.521Z,-3.71
2023-03-12T11:03:53.437Z,-3.69
2023-03-12T11:06:26.541Z,-3.75
2023-03-12T11:09:16.558Z,-3.75
2023-03-12T11:11:48.545Z,-3.77
2023-03-12T11:14:19.220Z,-3.76
2023-03-12T11:16:49.209Z,-3.74
2023-03-12T11:19:47.573Z,-3.71
2023-03-12T11:22:29.015Z,-3.72
2023-03-12T11:25:05.162Z,-3.75
2023-03-12T11:27:50.737Z,-3.71
2023-03-12T11:30:25.709Z,-3.72
2023-03-12T11:32:56.377Z,-3.75
2023-03-12T11:35:44.998Z,-3.77
2023-03-12T11:38:32.272Z,-3.81
2023-03-12T11:41:48.644Z,-3.82
2023-03-12T11:44:29.490Z,-3.83
2023-03-12T11:47:13.816Z,-3.81
2023-03-12T11:50:09.597Z,-3.79
2023-03-12T11:53:16.889Z,-3.78
2023-03-12T11:56:13.689Z,-3.82
2023-03-12T11:59:07.505Z,-3.80
2023-03-12T12:01:56.261Z,-3.78
2023-03-12T12:04:44.625Z,-3.74
2023-03-12T12:07:26.928Z,-3.75
2023-03-12T12:10:23.408Z,-3.76
2023-03-12T12:12:59.154Z,-3.70
2023-03-12T12:15:39.969Z,-3.65
2023-03-12T12:18:37.663Z,-3.69
2023-03-12T12:21:43.738Z,-3.75
2023-03-12T12:24:34.803Z,-3.68
2023-03-12T12:27:21.664Z,-3.66
2023-03-12T12:30:16.519Z,-3.65
2023-03-12T12:33:28.729Z,-3.69
2023-03-12T12:35:58.058Z,-3.65
2023-03-12T12:38:37.593Z,-3.62
2023-03-12T12:41:12.129Z,-3.58
2023-03-12T12:43:43.095Z,-3.53
2023-03-12T12:46:29.033Z,-3.53
2023-03-12T12:49:23.335Z,-3.45
2023-03-12T12:51:58.457Z,-3.42
2023-03-12T12:54:42.472Z,-3.35
2023-03-12T12:57:19.468Z,-3.31
2023-03-12T13:00:10.685Z,-3.30
2023-03-12T13:02:43.046Z,-3.28
2023-03-12T13:05:27.449Z,-3.20
2023-03-12T13:07:56.473Z,-3.15
2023-03-12T13:10:34.549Z,-3.08
2023-03-12T13:13:22.526Z,-3.00
2023-03-12T13:15:51.667Z,-2.94
2023-03-12T13:18:30.970Z,-2.86
2023-03-12T13:21:24.980Z,-2.89
2023-03-12T13:24:23.086Z,-2.71
2023-03-12T13:27:29.803Z,-2.62
2023-03-12T13:29:58.958Z,-2.53
2023-03-12T13:32:58.275Z,-2.43
2023-03-12T13:35:27.251Z,-2.34
2023-03-12T13:37:56.392Z,-2.27
2023-03-12T13:40:31.295Z,-2.22
2023-03-12T13:43:09.321Z,-2.17
2023-03-12T13:46:07.076Z,-2.12
2023-03-12T13:48:37.530Z,-2.10
2023-03-12T13:51:22.568Z,-2.09
2023-03-12T13:53:56.519Z,-2.08
2023-03-12T13:56:34.374Z,-2.06
2023-03-12T13:59:08.817Z,-2.05
2023-03-12T14:01:47.654Z,-2.04
2023-03-12T14:04:23.177Z,-1.99
2023-03-12T14:07:19.813Z,-1.99
2023-03-12T14:09:57.879Z,-2.00
2023-03-12T14:12:40.033Z,-2.04
2023-03-12T14:15:27.117Z,-2.01
2023-03-12T14:18:06.966Z,-2.00
2023-03-12T14:20:39.528Z,-1.99
2023-03-12T14:23:15.901Z,-1.98
2023-03-12T14:25:47.654Z,-1.97
2023-03-12T14:28:25.253Z,-1.93
2023-03-12T14:31:05.790Z,-1.90
2023-03-12T14:33:51.214Z,-1.89
2023-03-12T14:36:27.530Z,-1.89
2023-03-12T14:39:22.923Z,-1.88
2023-03-12T14:42:00.948Z,-1.89
2023-03-12T14:44:31.312Z,-1.92
2023-03-12T14:47:04.643Z,-1.92
2023-03-12T14:49:39.402Z,-1.89
2023-03-12T14:52:08.754Z,-1.87
2023-03-12T14:54:40.240Z,-1.80
2023-03-12T14:57:16.153Z,-1.76
2023-03-12T14:59:54.933Z,-1.70
2023-03-12T15:02:25.354Z,-1.63
2023-03-12T15:04:58.563Z,-1.59
2023-03-12T15:07:40.085Z,-1.57
2023-03-12T15:10:19.349Z,-1.59
2023-03-12T15:12:48.866Z,-1.50
2023-03-12T15:15:31.077Z,-1.50
2023-03-12T15:18:00.296Z,-1.54
2023-03-12T15:20:31.885Z,-1.57
2023-03-12T15:23:04.374Z,-1.61
2023-03-12T15:25:35.167Z,-1.63
2023-03-12T15:28:16.199Z,-1.62
2023-03-12T15:30:45.477Z,-1.60
2023-03-12T15:33:27.232Z,-1.57
2023-03-12T15:36:27.272Z,-1.49
2023-03-12T15:38:57.684Z,-1.43
2023-03-12T15:41:46.116Z,-1.38
2023-03-12T15:44:26.962Z,-1.33
2023-03-12T15:47:04.670Z,-1.33
2023-03-12T15:49:36.812Z,-1.30
2023-03-12T15:52:36.869Z,-1.20
2023-03-12T15:55:27.177Z,-1.20
2023-03-12T15:57:57.681Z,-1.17
2023-03-12T16:00:28.928Z,-1.13
2023-03-12T16:03:04.640Z,-1.08
2023-03-12T16:05:39.328Z,-1.02
2023-03-12T16:08:24.090Z,-0.96
2023-03-12T16:10:53.940Z,-0.93
2023-03-12T16:13:29.006Z,-0.86
2023-03-12T16:15:59.040Z,-0.84
2023-03-12T16:18:28.084Z,-0.86
2023-03-12T16:20:56.889Z,-0.83
2023-03-12T16:23:25.649Z,-0.78
2023-03-12T16:25:57.131Z,-0.76
2023-03-12T16:28:26.933Z,-0.74
2023-03-12T16:30:55.874Z,-0.73
2023-03-12T16:33:25.760Z,-0.70
2023-03-12T16:35:54.735Z,-0.67
2023-03-12T16:38:23.567Z,-0.66
2023-03-12T16:40:53.641Z,-0.63
2023-03-12T16:43:29.805Z,-0.63
2023-03-12T16:45:59.076Z,-0.65
2023-03-12T16:48:28.451Z,-0.63
2023-03-12T16:50:59.025Z,-0.59
2023-03-12T16:53:27.993Z,-0.66
2023-03-12T16:56:02.137Z,-0.55
2023-03-12T16:58:31.780Z,-0.53
2023-03-12T17:01:01.627Z,-0.52
2023-03-12T17:03:40.505Z,-0.50
2023-03-12T17:06:16.300Z,-0.49
2023-03-12T17:08:46.270Z,-0.48
2023-03-12T17:11:19.541Z,-0.45
2023-03-12T17:13:53.163Z,-0.44
2023-03-12T17:16:22.844Z,-0.44
2023-03-12T17:18:51.869Z,-0.42
2023-03-12T17:21:21.386Z,-0.42
2023-03-12T17:23:51.196Z,-0.44
2023-03-12T17:26:20.348Z,-0.42
2023-03-12T17:28:49.217Z,-0.44
2023-03-12T17:31:18.457Z,-0.46
2023-03-12T17:33:47.312Z,-0.49
2023-03-12T17:36:16.152Z,-0.43
2023-03-12T17:38:44.919Z,-0.45
2023-03-12T17:41:25.464Z,-0.37
2023-03-12T17:43:59.059Z,-0.36
2023-03-12T17:46:28.921Z,-0.31
2023-03-12T17:48:58.103Z,-0.29
2023-03-12T17:51:26.936Z,-0.25
2023-03-12T17:53:55.969Z,-0.27
2023-03-12T17:56:24.868Z,-0.28
2023-03-12T17:58:53.653Z,-0.23
2023-03-12T18:01:23.199Z,-0.21
2023-03-12T18:03:52.237Z,-0.28
2023-03-12T18:06:21.001Z,-0.31
2023-03-12T18:08:50.308Z,-0.34
2023-03-12T18:11:19.152Z,-0.36
2023-03-12T18:13:49.075Z,-0.32
2023-03-12T18:16:18.714Z,-0.32
2023-03-12T18:18:47.628Z,-0.31
2023-03-12T18:21:16.422Z,-0.33
2023-03-12T18:23:46.838Z,-0.39
2023-03-12T18:26:15.737Z,-0.38
2023-03-12T18:28:44.475Z,-0.36
2023-03-12T18:31:13.441Z,-0.40
2023-03-12T18:33:42.492Z,-0.38
2023-03-12T18:36:11.326Z,-0.39
2023-03-12T18:38:40.008Z,-0.36
2023-03-12T18:41:12.800Z,-0.38
2023-03-12T18:43:42.579Z,-0.39
2023-03-12T18:46:12.046Z,-0.40
2023-03-12T18:48:43.586Z,-0.41
2023-03-12T18:51:12.904Z,-0.40
2023-03-12T18:53:42.143Z,-0.43
2023-03-12T18:56:10.816Z,-0.39
2023-03-12T18:58:40.320Z,-0.40
2023-03-12T19:01:09.807Z,-0.39
2023-03-12T19:03:38.761Z,-0.37
2023-03-12T19:06:10.303Z,-0.42
2023-03-12T19:08:39.610Z,-0.43
2023-03-12T19:11:11.486Z,-0.53
2023-03-12T19:13:40.623Z,-0.68
2023-03-12T19:16:11.837Z,-0.89
2023-03-12T19:18:40.765Z,-0.95
2023-03-12T19:21:09.643Z,-0.99
2023-03-12T19:23:38.689Z,-1.09
2023-03-12T19:26:08.287Z,-1.16
2023-03-12T19:28:38.465Z,-1.19
2023-03-12T19:31:10.455Z,-1.27
2023-03-12T19:33:39.353Z,-1.36
2023-03-12T19:36:08.696Z,-1.38
2023-03-12T19:38:37.635Z,-1.47
2023-03-12T19:41:09.250Z,-1.58
2023-03-12T19:43:38.734Z,-1.62
2023-03-12T19:46:07.865Z,-1.67
2023-03-12T19:48:36.936Z,-2.00
2023-03-12T19:51:10.721Z,-2.28
2023-03-12T19:53:39.955Z,-2.45
2023-03-12T19:56:09.255Z,-2.64
2023-03-12T19:58:38.022Z,-2.71
2023-03-12T20:01:07.235Z,-2.83
2023-03-12T20:03:43.435Z,-2.99
2023-03-12T20:06:13.428Z,-2.95
2023-03-12T20:08:42.263Z,-3.05
2023-03-12T20:11:11.403Z,-3.03
2023-03-12T20:13:40.411Z,-3.10
2023-03-12T20:16:09.377Z,-3.19
2023-03-12T20:18:38.202Z,-3.17
2023-03-12T20:21:06.978Z,-3.31
2023-03-12T20:23:35.824Z,-3.52
2023-03-12T20:26:04.849Z,-3.71
2023-03-12T20:28:33.649Z,-3.91
2023-03-12T20:31:10.659Z,-4.05
2023-03-12T20:33:39.682Z,-4.11
2023-03-12T20:36:10.670Z,-4.15
2023-03-12T20:38:39.438Z,-4.34
2023-03-12T20:41:13.764Z,-4.47
2023-03-12T20:43:43.510Z,-4.60
2023-03-12T20:46:13.452Z,-4.76
2023-03-12T20:48:42.443Z,-4.72
2023-03-12T20:51:11.387Z,-4.83
2023-03-12T20:53:40.241Z,-4.89
2023-03-12T20:56:09.962Z,-4.93
2023-03-12T20:58:38.761Z,-5.03
2023-03-12T21:01:08.737Z,-5.10
2023-03-12T21:03:37.823Z,-5.13
2023-03-12T21:06:07.159Z,-5.14
2023-03-12T21:08:36.074Z,-5.22
2023-03-12T21:11:09.450Z,-5.30
2023-03-12T21:13:38.341Z,-5.42
2023-03-12T21:16:09.003Z,-5.43
2023-03-12T21:18:38.099Z,-5.52
2023-03-12T21:21:08.805Z,-5.62
2023-03-12T21:23:39.430Z,-5.67
2023-03-12T21:26:09.621Z,-5.78
2023-03-12T21:28:38.964Z,-5.79
2023-03-12T21:31:10.644Z,-5.88
2023-03-12T21:33:40.089Z,-5.87
2023-03-12T21:36:11.348Z,-5.91
2023-03-12T21:38:43.310Z,-6.01
2023-03-12T21:41:16.496Z,-6.01
2023-03-12T21:43:46.694Z,-6.05
2023-03-12T21:46:18.125Z,-6.15
2023-03-12T21:48:48.829Z,-6.26
2023-03-12T21:51:18.879Z,-6.18
2023-03-12T21:53:49.982Z,-6.13
2023-03-12T21:56:18.998Z,-6.29
2023-03-12T21:58:47.922Z,-6.09
2023-03-12T22:01:19.612Z,-6.08
2023-03-12T22:03:48.662Z,-6.12
2023-03-12T22:06:18.019Z,-5.94
2023-03-12T22:08:50.783Z,-5.78
2023-03-12T22:11:20.179Z,-5.72
2023-03-12T22:13:49.449Z,-5.66
2023-03-12T22:16:18.582Z,-5.63
2023-03-12T22:18:47.717Z,-5.52
2023-03-12T22:21:19.513Z,-5.58
2023-03-12T22:23:51.627Z,-5.55
2023-03-12T22:26:22.763Z,-5.49
2023-03-12T22:28:54.034Z,-5.54
2023-03-12T22:31:29.038Z,-5.48
2023-03-12T22:33:58.384Z,-5.47
2023-03-12T22:36:27.474Z,-5.60
2023-03-12T22:38:56.552Z,-5.64
2023-03-12T22:41:27.424Z,-5.75
2023-03-12T22:43:58.711Z,-5.83
2023-03-12T22:46:28.194Z,-5.88
2023-03-12T22:49:00.143Z,-5.82
2023-03-12T22:51:31.752Z,-5.82
2023-03-12T22:54:01.244Z,-5.82
2023-03-12T22:56:30.415Z,-5.92
2023-03-12T22:58:59.809Z,-5.91
2023-03-12T23:01:29.947Z,-5.87
2023-03-12T23:04:00.342Z,-6.02
2023-03-12T23:06:30.752Z,-5.90
2023-03-12T23:09:00.167Z,-5.86
2023-03-12T23:11:30.222Z,-5.95
2023-03-12T23:13:59.147Z,-5.87
2023-03-12T23:16:28.239Z,-5.95
2023-03-12T23:18:57.209Z,-5.98
2023-03-12T23:21:26.981Z,-6.08
2023-03-12T23:23:55.754Z,-5.98
2023-03-12T23:26:27.373Z,-5.94
2023-03-12T23:28:58.362Z,-5.90
2023-03-12T23:31:29.029Z,-5.81
2023-03-12T23:33:59.051Z,-5.82
2023-03-12T23:36:28.402Z,-5.83
2023-03-12T23:38:57.550Z,-5.95
2023-03-12T23:41:31.930Z,-5.85
2023-03-12T23:44:01.394Z,-5.91
2023-03-12T23:46:30.721Z,-5.89
2023-03-12T23:48:59.553Z,-5.87
2023-03-12T23:51:33.753Z,-5.89
2023-03-12T23:54:05.800Z,-5.90
2023-03-12T23:56:39.964Z,-5.94
2023-03-12T23:59:10.238Z,-5.89
